sensor_id;sensor_type;location;lat;lon;timestamp;P1;durP1;ratioP1;P2;durP2;ratioP2
11008;SDS011;5557;51.670;7.788;2024-03-02T00:00:08;3.20;;;3.00;;
11008;SDS011;5557;51.670;7.788;2024-03-02T00:02:43;3.60;;;3.40;;
11008;SDS011;5557;51.670;7.788;2024-03-02T00:05:11;4.87;;;3.07;;
11008;SDS011;5557;51.670;7.788;2024-03-02T00:07:42;3.47;;;3.37;;
11008;SDS011;5557;51.670;7.788;2024-03-02T00:10:10;4.80;;;4.40;;
11008;SDS011;5557;51.670;7.788;2024-03-02T00:12:42;3.77;;;3.57;;
11008;SDS011;5557;51.670;7.788;2024-03-02T00:18:12;4.97;;;4.57;;
11008;SDS011;5557;51.670;7.788;2024-03-02T00:20:45;3.43;;;3.27;;
11008;SDS011;5557;51.670;7.788;2024-03-02T00:23:14;4.50;;;4.20;;
11008;SDS011;5557;51.670;7.788;2024-03-02T00:25:53;6.00;;;3.30;;
11008;SDS011;5557;51.670;7.788;2024-03-02T00:33:41;3.17;;;3.07;;
11008;SDS011;5557;51.670;7.788;2024-03-02T00:36:16;3.60;;;3.50;;
11008;SDS011;5557;51.670;7.788;2024-03-02T00:38:51;2.93;;;2.83;;
11008;SDS011;5557;51.670;7.788;2024-03-02T00:41:29;3.23;;;3.10;;
11008;SDS011;5557;51.670;7.788;2024-03-02T00:43:59;3.40;;;3.20;;
11008;SDS011;5557;51.670;7.788;2024-03-02T00:46:33;3.30;;;3.00;;
11008;SDS011;5557;51.670;7.788;2024-03-02T00:51:50;3.37;;;3.17;;
11008;SDS011;5557;51.670;7.788;2024-03-02T00:54:28;3.63;;;3.43;;
11008;SDS011;5557;51.670;7.788;2024-03-02T00:56:56;3.03;;;2.93;;
11008;SDS011;5557;51.670;7.788;2024-03-02T00:59:24;5.20;;;2.90;;
11008;SDS011;5557;51.670;7.788;2024-03-02T01:01:51;3.10;;;3.00;;
11008;SDS011;5557;51.670;7.788;2024-03-02T01:04:21;3.00;;;2.80;;
11008;SDS011;5557;51.670;7.788;2024-03-02T01:06:48;3.20;;;3.00;;
11008;SDS011;5557;51.670;7.788;2024-03-02T01:09:15;3.50;;;3.37;;
11008;SDS011;5557;51.670;7.788;2024-03-02T01:11:44;3.17;;;2.97;;
11008;SDS011;5557;51.670;7.788;2024-03-02T01:14:11;2.63;;;2.43;;
11008;SDS011;5557;51.670;7.788;2024-03-02T01:16:38;3.97;;;3.53;;
11008;SDS011;5557;51.670;7.788;2024-03-02T01:19:05;2.80;;;2.70;;
11008;SDS011;5557;51.670;7.788;2024-03-02T01:21:33;2.53;;;2.43;;
11008;SDS011;5557;51.670;7.788;2024-03-02T01:24:00;2.80;;;2.60;;
11008;SDS011;5557;51.670;7.788;2024-03-02T01:26:27;2.90;;;2.60;;
11008;SDS011;5557;51.670;7.788;2024-03-02T01:28:54;2.50;;;2.40;;
11008;SDS011;5557;51.670;7.788;2024-03-02T01:31:21;2.90;;;2.70;;
11008;SDS011;5557;51.670;7.788;2024-03-02T01:33:48;2.50;;;2.40;;
11008;SDS011;5557;51.670;7.788;2024-03-02T01:36:15;2.20;;;2.10;;
11008;SDS011;5557;51.670;7.788;2024-03-02T01:38:42;2.70;;;2.60;;
11008;SDS011;5557;51.670;7.788;2024-03-02T01:41:09;2.40;;;2.30;;
11008;SDS011;5557;51.670;7.788;2024-03-02T01:43:37;12.60;;;2.63;;
11008;SDS011;5557;51.670;7.788;2024-03-02T01:46:07;2.93;;;2.80;;
11008;SDS011;5557;51.670;7.788;2024-03-02T01:48:36;2.90;;;2.57;;
11008;SDS011;5557;51.670;7.788;2024-03-02T01:51:04;4.43;;;2.17;;
11008;SDS011;5557;51.670;7.788;2024-03-02T01:53:34;3.20;;;3.10;;
11008;SDS011;5557;51.670;7.788;2024-03-02T01:56:04;2.10;;;2.00;;
11008;SDS011;5557;51.670;7.788;2024-03-02T01:58:32;3.70;;;3.50;;
11008;SDS011;5557;51.670;7.788;2024-03-02T02:01:01;2.57;;;2.47;;
11008;SDS011;5557;51.670;7.788;2024-03-02T02:03:29;2.60;;;2.50;;
11008;SDS011;5557;51.670;7.788;2024-03-02T02:05:58;4.80;;;3.03;;
11008;SDS011;5557;51.670;7.788;2024-03-02T02:08:25;3.00;;;2.80;;
11008;SDS011;5557;51.670;7.788;2024-03-02T02:10:54;3.70;;;2.60;;
11008;SDS011;5557;51.670;7.788;2024-03-02T02:13:24;2.80;;;2.60;;
11008;SDS011;5557;51.670;7.788;2024-03-02T02:15:53;3.40;;;3.00;;
11008;SDS011;5557;51.670;7.788;2024-03-02T02:18:21;2.47;;;2.37;;
11008;SDS011;5557;51.670;7.788;2024-03-02T02:20:49;2.77;;;2.57;;
11008;SDS011;5557;51.670;7.788;2024-03-02T02:23:16;2.37;;;2.23;;
11008;SDS011;5557;51.670;7.788;2024-03-02T02:25:44;2.50;;;2.30;;
11008;SDS011;5557;51.670;7.788;2024-03-02T02:28:11;2.80;;;2.70;;
11008;SDS011;5557;51.670;7.788;2024-03-02T02:30:41;5.53;;;2.50;;
11008;SDS011;5557;51.670;7.788;2024-03-02T02:33:09;2.83;;;2.63;;
11008;SDS011;5557;51.670;7.788;2024-03-02T02:35:36;2.63;;;2.47;;
11008;SDS011;5557;51.670;7.788;2024-03-02T02:38:03;2.63;;;2.43;;
11008;SDS011;5557;51.670;7.788;2024-03-02T02:40:31;2.60;;;2.40;;
11008;SDS011;5557;51.670;7.788;2024-03-02T02:42:58;7.20;;;2.63;;
11008;SDS011;5557;51.670;7.788;2024-03-02T02:45:31;2.73;;;2.63;;
11008;SDS011;5557;51.670;7.788;2024-03-02T02:47:58;2.33;;;2.23;;
11008;SDS011;5557;51.670;7.788;2024-03-02T02:50:28;2.90;;;2.70;;
11008;SDS011;5557;51.670;7.788;2024-03-02T02:52:55;2.90;;;2.10;;
11008;SDS011;5557;51.670;7.788;2024-03-02T02:55:25;2.93;;;2.60;;
11008;SDS011;5557;51.670;7.788;2024-03-02T02:57:54;3.50;;;3.30;;
11008;SDS011;5557;51.670;7.788;2024-03-02T03:00:21;4.47;;;2.43;;
11008;SDS011;5557;51.670;7.788;2024-03-02T03:02:49;2.80;;;2.70;;
11008;SDS011;5557;51.670;7.788;2024-03-02T03:05:19;2.70;;;2.60;;
11008;SDS011;5557;51.670;7.788;2024-03-02T03:07:46;2.40;;;2.30;;
11008;SDS011;5557;51.670;7.788;2024-03-02T03:10:16;2.43;;;2.33;;
11008;SDS011;5557;51.670;7.788;2024-03-02T03:12:43;2.87;;;2.63;;
11008;SDS011;5557;51.670;7.788;2024-03-02T03:15:11;2.93;;;2.73;;
11008;SDS011;5557;51.670;7.788;2024-03-02T03:17:40;3.80;;;2.47;;
11008;SDS011;5557;51.670;7.788;2024-03-02T03:20:08;2.80;;;2.60;;
11008;SDS011;5557;51.670;7.788;2024-03-02T03:22:44;2.60;;;2.33;;
11008;SDS011;5557;51.670;7.788;2024-03-02T03:25:11;2.60;;;2.50;;
11008;SDS011;5557;51.670;7.788;2024-03-02T03:27:38;2.80;;;2.60;;
11008;SDS011;5557;51.670;7.788;2024-03-02T03:30:10;2.47;;;2.37;;
11008;SDS011;5557;51.670;7.788;2024-03-02T03:32:38;3.03;;;2.83;;
11008;SDS011;5557;51.670;7.788;2024-03-02T03:35:05;2.60;;;2.40;;
11008;SDS011;5557;51.670;7.788;2024-03-02T03:37:33;2.37;;;2.27;;
11008;SDS011;5557;51.670;7.788;2024-03-02T03:40:02;2.90;;;2.43;;
11008;SDS011;5557;51.670;7.788;2024-03-02T03:42:33;6.20;;;2.30;;
11008;SDS011;5557;51.670;7.788;2024-03-02T03:45:01;2.33;;;2.20;;
11008;SDS011;5557;51.670;7.788;2024-03-02T03:47:28;2.27;;;2.17;;
11008;SDS011;5557;51.670;7.788;2024-03-02T03:49:55;2.80;;;2.70;;
11008;SDS011;5557;51.670;7.788;2024-03-02T03:52:22;2.27;;;2.10;;
11008;SDS011;5557;51.670;7.788;2024-03-02T03:54:49;2.97;;;2.77;;
11008;SDS011;5557;51.670;7.788;2024-03-02T03:57:16;2.97;;;2.60;;
11008;SDS011;5557;51.670;7.788;2024-03-02T03:59:45;2.70;;;2.60;;
11008;SDS011;5557;51.670;7.788;2024-03-02T04:02:14;2.67;;;2.57;;
11008;SDS011;5557;51.670;7.788;2024-03-02T04:04:41;3.20;;;3.00;;
11008;SDS011;5557;51.670;7.788;2024-03-02T04:07:08;2.63;;;2.23;;
11008;SDS011;5557;51.670;7.788;2024-03-02T04:09:36;2.13;;;2.03;;
11008;SDS011;5557;51.670;7.788;2024-03-02T04:12:03;2.77;;;2.57;;
11008;SDS011;5557;51.670;7.788;2024-03-02T04:14:32;2.53;;;2.33;;
11008;SDS011;5557;51.670;7.788;2024-03-02T04:17:00;2.90;;;2.80;;
11008;SDS011;5557;51.670;7.788;2024-03-02T04:19:27;5.27;;;3.07;;
11008;SDS011;5557;51.670;7.788;2024-03-02T04:21:55;2.87;;;2.77;;
11008;SDS011;5557;51.670;7.788;2024-03-02T04:24:26;2.67;;;2.47;;
11008;SDS011;5557;51.670;7.788;2024-03-02T04:26:53;3.07;;;2.97;;
11008;SDS011;5557;51.670;7.788;2024-03-02T04:29:20;3.03;;;2.83;;
11008;SDS011;5557;51.670;7.788;2024-03-02T04:31:47;2.80;;;2.60;;
11008;SDS011;5557;51.670;7.788;2024-03-02T04:34:15;2.80;;;2.70;;
11008;SDS011;5557;51.670;7.788;2024-03-02T04:36:42;2.73;;;2.60;;
11008;SDS011;5557;51.670;7.788;2024-03-02T04:39:10;3.37;;;3.07;;
11008;SDS011;5557;51.670;7.788;2024-03-02T04:41:37;2.70;;;2.60;;
11008;SDS011;5557;51.670;7.788;2024-03-02T04:44:04;3.50;;;3.30;;
11008;SDS011;5557;51.670;7.788;2024-03-02T04:46:34;3.37;;;3.10;;
11008;SDS011;5557;51.670;7.788;2024-03-02T04:49:01;4.60;;;3.03;;
11008;SDS011;5557;51.670;7.788;2024-03-02T04:51:31;3.93;;;3.60;;
11008;SDS011;5557;51.670;7.788;2024-03-02T04:53:58;3.00;;;2.33;;
11008;SDS011;5557;51.670;7.788;2024-03-02T04:56:25;3.87;;;3.57;;
11008;SDS011;5557;51.670;7.788;2024-03-02T04:59:13;2.83;;;2.73;;
11008;SDS011;5557;51.670;7.788;2024-03-02T05:01:40;3.40;;;3.30;;
11008;SDS011;5557;51.670;7.788;2024-03-02T05:04:09;3.90;;;3.70;;
11008;SDS011;5557;51.670;7.788;2024-03-02T05:06:38;3.90;;;3.60;;
11008;SDS011;5557;51.670;7.788;2024-03-02T05:09:07;4.13;;;3.80;;
11008;SDS011;5557;51.670;7.788;2024-03-02T05:11:37;4.37;;;3.53;;
11008;SDS011;5557;51.670;7.788;2024-03-02T05:14:26;4.03;;;3.83;;
11008;SDS011;5557;51.670;7.788;2024-03-02T05:16:53;4.13;;;3.93;;
11008;SDS011;5557;51.670;7.788;2024-03-02T05:19:20;4.90;;;4.60;;
11008;SDS011;5557;51.670;7.788;2024-03-02T05:21:47;4.17;;;3.90;;
11008;SDS011;5557;51.670;7.788;2024-03-02T05:24:15;4.60;;;4.20;;
11008;SDS011;5557;51.670;7.788;2024-03-02T05:26:42;3.77;;;3.57;;
11008;SDS011;5557;51.670;7.788;2024-03-02T05:29:10;5.60;;;3.90;;
11008;SDS011;5557;51.670;7.788;2024-03-02T05:31:41;4.07;;;3.97;;
11008;SDS011;5557;51.670;7.788;2024-03-02T05:34:12;4.77;;;4.17;;
11008;SDS011;5557;51.670;7.788;2024-03-02T05:36:45;4.23;;;3.93;;
11008;SDS011;5557;51.670;7.788;2024-03-02T05:39:15;4.63;;;4.40;;
11008;SDS011;5557;51.670;7.788;2024-03-02T05:41:44;4.17;;;3.73;;
11008;SDS011;5557;51.670;7.788;2024-03-02T05:44:13;4.53;;;4.33;;
11008;SDS011;5557;51.670;7.788;2024-03-02T05:46:42;5.13;;;4.70;;
11008;SDS011;5557;51.670;7.788;2024-03-02T05:49:12;5.30;;;5.00;;
11008;SDS011;5557;51.670;7.788;2024-03-02T05:51:40;4.93;;;4.63;;
11008;SDS011;5557;51.670;7.788;2024-03-02T05:54:08;5.33;;;4.50;;
11008;SDS011;5557;51.670;7.788;2024-03-02T05:56:35;5.67;;;5.20;;
11008;SDS011;5557;51.670;7.788;2024-03-02T05:59:02;5.43;;;4.97;;
11008;SDS011;5557;51.670;7.788;2024-03-02T06:01:43;6.23;;;5.60;;
11008;SDS011;5557;51.670;7.788;2024-03-02T06:04:18;5.30;;;4.57;;
11008;SDS011;5557;51.670;7.788;2024-03-02T06:06:45;5.30;;;4.90;;
11008;SDS011;5557;51.670;7.788;2024-03-02T06:09:12;4.83;;;4.50;;
11008;SDS011;5557;51.670;7.788;2024-03-02T06:11:40;5.23;;;4.90;;
11008;SDS011;5557;51.670;7.788;2024-03-02T06:14:08;5.70;;;5.20;;
11008;SDS011;5557;51.670;7.788;2024-03-02T06:16:36;6.30;;;4.87;;
11008;SDS011;5557;51.670;7.788;2024-03-02T06:19:03;6.50;;;6.00;;
11008;SDS011;5557;51.670;7.788;2024-03-02T06:21:31;6.77;;;4.53;;
11008;SDS011;5557;51.670;7.788;2024-03-02T06:23:58;5.03;;;4.73;;
11008;SDS011;5557;51.670;7.788;2024-03-02T06:26:25;5.00;;;4.57;;
11008;SDS011;5557;51.670;7.788;2024-03-02T06:28:55;6.00;;;5.50;;
11008;SDS011;5557;51.670;7.788;2024-03-02T06:31:22;5.40;;;5.00;;
11008;SDS011;5557;51.670;7.788;2024-03-02T06:33:49;4.93;;;4.53;;
11008;SDS011;5557;51.670;7.788;2024-03-02T06:36:16;5.30;;;5.00;;
11008;SDS011;5557;51.670;7.788;2024-03-02T06:38:43;5.80;;;5.40;;
11008;SDS011;5557;51.670;7.788;2024-03-02T06:41:10;5.97;;;5.50;;
11008;SDS011;5557;51.670;7.788;2024-03-02T06:43:37;4.70;;;4.40;;
11008;SDS011;5557;51.670;7.788;2024-03-02T06:46:08;5.60;;;5.10;;
11008;SDS011;5557;51.670;7.788;2024-03-02T06:48:38;4.90;;;4.43;;
11008;SDS011;5557;51.670;7.788;2024-03-02T06:51:06;5.33;;;4.93;;
11008;SDS011;5557;51.670;7.788;2024-03-02T06:53:33;5.00;;;4.60;;
11008;SDS011;5557;51.670;7.788;2024-03-02T06:56:03;4.60;;;4.23;;
11008;SDS011;5557;51.670;7.788;2024-03-02T06:58:31;5.03;;;4.70;;
11008;SDS011;5557;51.670;7.788;2024-03-02T07:00:59;3.93;;;3.67;;
11008;SDS011;5557;51.670;7.788;2024-03-02T07:03:30;4.67;;;4.47;;
11008;SDS011;5557;51.670;7.788;2024-03-02T07:05:57;4.93;;;4.63;;
11008;SDS011;5557;51.670;7.788;2024-03-02T07:08:24;4.33;;;4.00;;
11008;SDS011;5557;51.670;7.788;2024-03-02T07:10:51;4.43;;;4.10;;
11008;SDS011;5557;51.670;7.788;2024-03-02T07:13:18;5.23;;;4.73;;
11008;SDS011;5557;51.670;7.788;2024-03-02T07:15:46;7.00;;;4.13;;
11008;SDS011;5557;51.670;7.788;2024-03-02T07:18:33;4.90;;;4.50;;
11008;SDS011;5557;51.670;7.788;2024-03-02T07:21:03;3.57;;;3.27;;
11008;SDS011;5557;51.670;7.788;2024-03-02T07:23:31;3.90;;;3.60;;
11008;SDS011;5557;51.670;7.788;2024-03-02T07:25:58;6.80;;;4.03;;
11008;SDS011;5557;51.670;7.788;2024-03-02T07:28:30;4.93;;;4.47;;
11008;SDS011;5557;51.670;7.788;2024-03-02T07:30:59;4.57;;;4.27;;
11008;SDS011;5557;51.670;7.788;2024-03-02T07:33:28;4.63;;;4.23;;
11008;SDS011;5557;51.670;7.788;2024-03-02T07:35:55;4.43;;;4.17;;
11008;SDS011;5557;51.670;7.788;2024-03-02T07:38:23;4.53;;;4.13;;
11008;SDS011;5557;51.670;7.788;2024-03-02T07:40:51;4.40;;;4.10;;
11008;SDS011;5557;51.670;7.788;2024-03-02T07:43:19;6.33;;;4.47;;
11008;SDS011;5557;51.670;7.788;2024-03-02T07:45:47;4.90;;;4.50;;
11008;SDS011;5557;51.670;7.788;2024-03-02T07:48:14;5.93;;;4.27;;
11008;SDS011;5557;51.670;7.788;2024-03-02T07:50:41;4.23;;;4.03;;
11008;SDS011;5557;51.670;7.788;2024-03-02T07:53:09;4.77;;;4.37;;
11008;SDS011;5557;51.670;7.788;2024-03-02T07:55:38;3.50;;;3.20;;
11008;SDS011;5557;51.670;7.788;2024-03-02T07:58:06;4.00;;;3.57;;
11008;SDS011;5557;51.670;7.788;2024-03-02T08:00:39;4.20;;;4.00;;
11008;SDS011;5557;51.670;7.788;2024-03-02T08:03:09;4.77;;;3.50;;
11008;SDS011;5557;51.670;7.788;2024-03-02T08:05:38;4.37;;;3.73;;
11008;SDS011;5557;51.670;7.788;2024-03-02T08:08:05;3.47;;;3.17;;
11008;SDS011;5557;51.670;7.788;2024-03-02T08:10:34;4.80;;;3.93;;
11008;SDS011;5557;51.670;7.788;2024-03-02T08:13:02;5.90;;;3.93;;
11008;SDS011;5557;51.670;7.788;2024-03-02T08:15:29;5.00;;;4.20;;
11008;SDS011;5557;51.670;7.788;2024-03-02T08:17:57;4.47;;;3.87;;
11008;SDS011;5557;51.670;7.788;2024-03-02T08:20:24;4.30;;;4.07;;
11008;SDS011;5557;51.670;7.788;2024-03-02T08:22:52;4.43;;;3.97;;
11008;SDS011;5557;51.670;7.788;2024-03-02T08:25:21;4.23;;;3.93;;
11008;SDS011;5557;51.670;7.788;2024-03-02T08:27:49;4.03;;;3.73;;
11008;SDS011;5557;51.670;7.788;2024-03-02T08:30:16;5.80;;;3.80;;
11008;SDS011;5557;51.670;7.788;2024-03-02T08:32:49;3.60;;;3.30;;
11008;SDS011;5557;51.670;7.788;2024-03-02T08:35:17;5.10;;;4.10;;
11008;SDS011;5557;51.670;7.788;2024-03-02T08:37:44;4.07;;;3.40;;
11008;SDS011;5557;51.670;7.788;2024-03-02T08:40:13;4.07;;;3.73;;
11008;SDS011;5557;51.670;7.788;2024-03-02T08:42:44;4.63;;;3.97;;
11008;SDS011;5557;51.670;7.788;2024-03-02T08:45:27;3.77;;;3.47;;
11008;SDS011;5557;51.670;7.788;2024-03-02T08:47:57;7.43;;;3.27;;
11008;SDS011;5557;51.670;7.788;2024-03-02T08:50:24;4.13;;;3.30;;
11008;SDS011;5557;51.670;7.788;2024-03-02T08:52:52;11.90;;;4.00;;
11008;SDS011;5557;51.670;7.788;2024-03-02T08:55:19;3.17;;;2.97;;
11008;SDS011;5557;51.670;7.788;2024-03-02T08:57:47;2.87;;;2.70;;
11008;SDS011;5557;51.670;7.788;2024-03-02T09:00:17;2.73;;;2.63;;
11008;SDS011;5557;51.670;7.788;2024-03-02T09:02:46;3.20;;;3.00;;
11008;SDS011;5557;51.670;7.788;2024-03-02T09:05:13;3.00;;;2.80;;
11008;SDS011;5557;51.670;7.788;2024-03-02T09:07:40;3.30;;;2.93;;
11008;SDS011;5557;51.670;7.788;2024-03-02T09:10:08;2.40;;;2.30;;
11008;SDS011;5557;51.670;7.788;2024-03-02T09:12:36;3.33;;;3.03;;
11008;SDS011;5557;51.670;7.788;2024-03-02T09:15:07;6.07;;;3.13;;
11008;SDS011;5557;51.670;7.788;2024-03-02T09:17:35;3.43;;;3.20;;
11008;SDS011;5557;51.670;7.788;2024-03-02T09:20:03;3.67;;;3.37;;
11008;SDS011;5557;51.670;7.788;2024-03-02T09:22:33;4.83;;;2.97;;
11008;SDS011;5557;51.670;7.788;2024-03-02T09:25:02;4.40;;;3.03;;
11008;SDS011;5557;51.670;7.788;2024-03-02T09:27:30;2.97;;;2.77;;
11008;SDS011;5557;51.670;7.788;2024-03-02T09:29:57;2.40;;;2.30;;
11008;SDS011;5557;51.670;7.788;2024-03-02T09:32:24;2.37;;;2.20;;
11008;SDS011;5557;51.670;7.788;2024-03-02T09:34:56;2.97;;;2.73;;
11008;SDS011;5557;51.670;7.788;2024-03-02T09:37:27;2.90;;;2.70;;
11008;SDS011;5557;51.670;7.788;2024-03-02T09:39:56;2.70;;;2.50;;
11008;SDS011;5557;51.670;7.788;2024-03-02T09:42:24;4.90;;;3.70;;
11008;SDS011;5557;51.670;7.788;2024-03-02T09:44:55;5.53;;;3.60;;
11008;SDS011;5557;51.670;7.788;2024-03-02T09:47:24;3.03;;;1.93;;
11008;SDS011;5557;51.670;7.788;2024-03-02T09:49:51;2.33;;;2.13;;
11008;SDS011;5557;51.670;7.788;2024-03-02T09:52:19;2.63;;;1.90;;
11008;SDS011;5557;51.670;7.788;2024-03-02T09:54:47;2.60;;;2.40;;
11008;SDS011;5557;51.670;7.788;2024-03-02T09:57:15;2.30;;;2.20;;
11008;SDS011;5557;51.670;7.788;2024-03-02T09:59:42;2.80;;;2.60;;
11008;SDS011;5557;51.670;7.788;2024-03-02T10:02:10;5.97;;;2.97;;
11008;SDS011;5557;51.670;7.788;2024-03-02T10:04:38;1.70;;;1.47;;
11008;SDS011;5557;51.670;7.788;2024-03-02T10:09:42;1.30;;;1.20;;
11008;SDS011;5557;51.670;7.788;2024-03-02T10:12:12;2.40;;;2.20;;
11008;SDS011;5557;51.670;7.788;2024-03-02T10:14:42;3.83;;;1.90;;
11008;SDS011;5557;51.670;7.788;2024-03-02T10:17:10;1.67;;;1.47;;
11008;SDS011;5557;51.670;7.788;2024-03-02T10:19:38;2.00;;;1.80;;
11008;SDS011;5557;51.670;7.788;2024-03-02T10:22:08;5.23;;;1.67;;
11008;SDS011;5557;51.670;7.788;2024-03-02T10:24:39;1.43;;;1.33;;
11008;SDS011;5557;51.670;7.788;2024-03-02T10:27:17;1.60;;;1.23;;
11008;SDS011;5557;51.670;7.788;2024-03-02T10:29:50;1.27;;;1.00;;
11008;SDS011;5557;51.670;7.788;2024-03-02T10:32:22;3.20;;;1.30;;
11008;SDS011;5557;51.670;7.788;2024-03-02T10:34:59;1.80;;;1.70;;
11008;SDS011;5557;51.670;7.788;2024-03-02T10:37:27;1.77;;;1.40;;
11008;SDS011;5557;51.670;7.788;2024-03-02T10:39:57;1.57;;;1.47;;
11008;SDS011;5557;51.670;7.788;2024-03-02T10:42:32;4.30;;;1.37;;
11008;SDS011;5557;51.670;7.788;2024-03-02T10:44:59;1.53;;;1.30;;
11008;SDS011;5557;51.670;7.788;2024-03-02T10:47:29;1.60;;;1.30;;
11008;SDS011;5557;51.670;7.788;2024-03-02T10:50:07;1.50;;;1.40;;
11008;SDS011;5557;51.670;7.788;2024-03-02T10:52:37;1.73;;;1.20;;
11008;SDS011;5557;51.670;7.788;2024-03-02T10:55:13;1.60;;;1.50;;
11008;SDS011;5557;51.670;7.788;2024-03-02T10:57:42;1.50;;;1.40;;
11008;SDS011;5557;51.670;7.788;2024-03-02T11:00:18;1.13;;;1.03;;
11008;SDS011;5557;51.670;7.788;2024-03-02T11:02:52;1.00;;;0.80;;
11008;SDS011;5557;51.670;7.788;2024-03-02T11:05:27;1.40;;;1.30;;
11008;SDS011;5557;51.670;7.788;2024-03-02T11:08:02;1.37;;;1.13;;
11008;SDS011;5557;51.670;7.788;2024-03-02T11:10:45;1.90;;;1.30;;
11008;SDS011;5557;51.670;7.788;2024-03-02T11:13:22;1.60;;;1.37;;
11008;SDS011;5557;51.670;7.788;2024-03-02T11:15:59;3.40;;;1.40;;
11008;SDS011;5557;51.670;7.788;2024-03-02T11:18:45;3.63;;;1.50;;
11008;SDS011;5557;51.670;7.788;2024-03-02T11:21:16;1.90;;;1.70;;
11008;SDS011;5557;51.670;7.788;2024-03-02T11:23:44;1.50;;;1.40;;
11008;SDS011;5557;51.670;7.788;2024-03-02T11:26:21;1.17;;;1.07;;
11008;SDS011;5557;51.670;7.788;2024-03-02T11:28:50;1.47;;;1.37;;
11008;SDS011;5557;51.670;7.788;2024-03-02T11:31:18;1.30;;;1.20;;
11008;SDS011;5557;51.670;7.788;2024-03-02T11:33:48;1.20;;;1.00;;
11008;SDS011;5557;51.670;7.788;2024-03-02T11:36:16;1.20;;;1.10;;
11008;SDS011;5557;51.670;7.788;2024-03-02T11:38:46;1.47;;;0.90;;
11008;SDS011;5557;51.670;7.788;2024-03-02T11:41:14;5.50;;;2.10;;
11008;SDS011;5557;51.670;7.788;2024-03-02T11:43:41;1.00;;;0.80;;
11008;SDS011;5557;51.670;7.788;2024-03-02T11:46:10;1.60;;;1.50;;
11008;SDS011;5557;51.670;7.788;2024-03-02T11:48:39;2.40;;;1.20;;
11008;SDS011;5557;51.670;7.788;2024-03-02T11:51:07;1.10;;;1.00;;
11008;SDS011;5557;51.670;7.788;2024-03-02T11:53:36;1.70;;;1.60;;
11008;SDS011;5557;51.670;7.788;2024-03-02T11:56:06;1.10;;;0.90;;
11008;SDS011;5557;51.670;7.788;2024-03-02T11:58:35;1.00;;;0.90;;
11008;SDS011;5557;51.670;7.788;2024-03-02T12:01:07;1.10;;;1.00;;
11008;SDS011;5557;51.670;7.788;2024-03-02T12:03:36;1.20;;;0.90;;
11008;SDS011;5557;51.670;7.788;2024-03-02T12:06:04;1.40;;;1.30;;
11008;SDS011;5557;51.670;7.788;2024-03-02T12:08:33;1.13;;;0.90;;
11008;SDS011;5557;51.670;7.788;2024-03-02T12:11:01;1.20;;;0.90;;
11008;SDS011;5557;51.670;7.788;2024-03-02T12:13:30;1.00;;;0.87;;
11008;SDS011;5557;51.670;7.788;2024-03-02T12:15:58;1.30;;;1.20;;
11008;SDS011;5557;51.670;7.788;2024-03-02T12:18:25;3.53;;;1.23;;
11008;SDS011;5557;51.670;7.788;2024-03-02T12:20:53;1.27;;;1.10;;
11008;SDS011;5557;51.670;7.788;2024-03-02T12:23:24;2.60;;;0.97;;
11008;SDS011;5557;51.670;7.788;2024-03-02T12:25:54;1.27;;;1.00;;
11008;SDS011;5557;51.670;7.788;2024-03-02T12:28:22;2.63;;;0.93;;
11008;SDS011;5557;51.670;7.788;2024-03-02T12:30:50;1.17;;;1.07;;
11008;SDS011;5557;51.670;7.788;2024-03-02T12:33:18;3.00;;;1.50;;
11008;SDS011;5557;51.670;7.788;2024-03-02T12:35:48;1.10;;;1.00;;
11008;SDS011;5557;51.670;7.788;2024-03-02T12:38:15;1.33;;;1.20;;
11008;SDS011;5557;51.670;7.788;2024-03-02T12:40:43;1.03;;;0.70;;
11008;SDS011;5557;51.670;7.788;2024-03-02T12:43:12;1.47;;;0.90;;
11008;SDS011;5557;51.670;7.788;2024-03-02T12:45:40;1.30;;;0.90;;
11008;SDS011;5557;51.670;7.788;2024-03-02T12:48:07;1.10;;;0.87;;
11008;SDS011;5557;51.670;7.788;2024-03-02T12:50:43;0.90;;;0.60;;
11008;SDS011;5557;51.670;7.788;2024-03-02T12:53:13;3.00;;;0.70;;
11008;SDS011;5557;51.670;7.788;2024-03-02T12:55:42;1.00;;;0.70;;
11008;SDS011;5557;51.670;7.788;2024-03-02T12:58:21;1.77;;;0.90;;
11008;SDS011;5557;51.670;7.788;2024-03-02T13:00:49;2.93;;;0.80;;
11008;SDS011;5557;51.670;7.788;2024-03-02T13:03:17;0.90;;;0.60;;
11008;SDS011;5557;51.670;7.788;2024-03-02T13:05:49;2.80;;;0.80;;
11008;SDS011;5557;51.670;7.788;2024-03-02T13:08:16;2.07;;;0.90;;
11008;SDS011;5557;51.670;7.788;2024-03-02T13:10:43;1.17;;;1.07;;
11008;SDS011;5557;51.670;7.788;2024-03-02T13:13:11;1.27;;;1.17;;
11008;SDS011;5557;51.670;7.788;2024-03-02T13:15:39;2.50;;;1.03;;
11008;SDS011;5557;51.670;7.788;2024-03-02T13:18:07;1.53;;;0.90;;
11008;SDS011;5557;51.670;7.788;2024-03-02T13:20:34;0.90;;;0.60;;
11008;SDS011;5557;51.670;7.788;2024-03-02T13:23:03;1.33;;;1.20;;
11008;SDS011;5557;51.670;7.788;2024-03-02T13:25:30;1.60;;;0.90;;
11008;SDS011;5557;51.670;7.788;2024-03-02T13:27:59;1.03;;;0.63;;
11008;SDS011;5557;51.670;7.788;2024-03-02T13:30:27;0.90;;;0.50;;
11008;SDS011;5557;51.670;7.788;2024-03-02T13:32:55;0.90;;;0.73;;
11008;SDS011;5557;51.670;7.788;2024-03-02T13:35:25;1.00;;;0.60;;
11008;SDS011;5557;51.670;7.788;2024-03-02T13:37:53;1.50;;;0.90;;
11008;SDS011;5557;51.670;7.788;2024-03-02T13:40:20;1.27;;;0.77;;
11008;SDS011;5557;51.670;7.788;2024-03-02T13:42:47;0.90;;;0.70;;
11008;SDS011;5557;51.670;7.788;2024-03-02T13:45:15;4.70;;;0.80;;
11008;SDS011;5557;51.670;7.788;2024-03-02T13:47:44;1.10;;;0.80;;
11008;SDS011;5557;51.670;7.788;2024-03-02T13:50:11;1.00;;;0.90;;
11008;SDS011;5557;51.670;7.788;2024-03-02T13:52:38;0.90;;;0.60;;
11008;SDS011;5557;51.670;7.788;2024-03-02T13:55:08;1.00;;;0.70;;
11008;SDS011;5557;51.670;7.788;2024-03-02T13:57:38;3.67;;;0.77;;
11008;SDS011;5557;51.670;7.788;2024-03-02T14:00:05;1.10;;;0.60;;
11008;SDS011;5557;51.670;7.788;2024-03-02T14:02:39;1.63;;;0.80;;
11008;SDS011;5557;51.670;7.788;2024-03-02T14:05:06;1.00;;;0.70;;
11008;SDS011;5557;51.670;7.788;2024-03-02T14:07:37;1.27;;;0.70;;
11008;SDS011;5557;51.670;7.788;2024-03-02T14:10:05;0.90;;;0.60;;
11008;SDS011;5557;51.670;7.788;2024-03-02T14:12:32;1.57;;;1.10;;
11008;SDS011;5557;51.670;7.788;2024-03-02T14:15:00;1.03;;;0.60;;
11008;SDS011;5557;51.670;7.788;2024-03-02T14:17:29;2.87;;;1.20;;
11008;SDS011;5557;51.670;7.788;2024-03-02T14:19:58;2.20;;;1.27;;
11008;SDS011;5557;51.670;7.788;2024-03-02T14:22:25;1.00;;;0.90;;
11008;SDS011;5557;51.670;7.788;2024-03-02T14:24:52;1.10;;;0.70;;
11008;SDS011;5557;51.670;7.788;2024-03-02T14:27:19;1.00;;;0.90;;
11008;SDS011;5557;51.670;7.788;2024-03-02T14:30:04;1.93;;;0.70;;
11008;SDS011;5557;51.670;7.788;2024-03-02T14:32:35;1.37;;;1.13;;
11008;SDS011;5557;51.670;7.788;2024-03-02T14:35:05;2.63;;;0.77;;
11008;SDS011;5557;51.670;7.788;2024-03-02T14:37:37;1.93;;;0.80;;
11008;SDS011;5557;51.670;7.788;2024-03-02T14:40:04;1.10;;;0.73;;
11008;SDS011;5557;51.670;7.788;2024-03-02T14:42:36;1.30;;;0.70;;
11008;SDS011;5557;51.670;7.788;2024-03-02T14:45:03;1.00;;;0.80;;
11008;SDS011;5557;51.670;7.788;2024-03-02T14:47:31;1.10;;;0.60;;
11008;SDS011;5557;51.670;7.788;2024-03-02T14:50:00;1.00;;;0.80;;
11008;SDS011;5557;51.670;7.788;2024-03-02T14:52:27;1.10;;;0.67;;
11008;SDS011;5557;51.670;7.788;2024-03-02T14:54:54;1.20;;;1.10;;
11008;SDS011;5557;51.670;7.788;2024-03-02T14:57:21;5.00;;;0.90;;
11008;SDS011;5557;51.670;7.788;2024-03-02T14:59:48;1.13;;;0.80;;
11008;SDS011;5557;51.670;7.788;2024-03-02T15:02:15;1.00;;;0.70;;
11008;SDS011;5557;51.670;7.788;2024-03-02T15:04:44;1.93;;;0.93;;
11008;SDS011;5557;51.670;7.788;2024-03-02T15:07:11;1.10;;;1.00;;
11008;SDS011;5557;51.670;7.788;2024-03-02T15:09:39;1.00;;;0.73;;
11008;SDS011;5557;51.670;7.788;2024-03-02T15:12:06;2.30;;;1.00;;
11008;SDS011;5557;51.670;7.788;2024-03-02T15:14:36;1.00;;;0.73;;
11008;SDS011;5557;51.670;7.788;2024-03-02T15:17:05;1.03;;;0.87;;
11008;SDS011;5557;51.670;7.788;2024-03-02T15:19:33;1.00;;;0.80;;
11008;SDS011;5557;51.670;7.788;2024-03-02T15:22:02;1.07;;;0.93;;
11008;SDS011;5557;51.670;7.788;2024-03-02T15:24:30;0.90;;;0.80;;